sensor_id;sensor_type;location;lat;lon;timestamp;pressure;altitude;pressure_sealevel;temperature;humidity
9139;BME280;4604;48.616;9.548;2022-09-09T00:02:08;96576.00;;;17.60;62.65
9139;BME280;4604;48.616;9.548;2022-09-09T00:04:41;96584.22;;;17.58;63.16
9139;BME280;4604;48.616;9.548;2022-09-09T00:07:14;96585.84;;;17.59;62.08
9139;BME280;4604;48.616;9.548;2022-09-09T00:09:46;96584.47;;;17.63;62.00
9139;BME280;4604;48.616;9.548;2022-09-09T00:12:16;96583.81;;;17.61;62.33
9139;BME280;4604;48.616;9.548;2022-09-09T00:14:51;96579.13;;;17.63;61.29
9139;BME280;4604;48.616;9.548;2022-09-09T00:17:34;96576.88;;;17.67;62.13
9139;BME280;4604;48.616;9.548;2022-09-09T00:20:11;96570.56;;;17.74;61.90
9139;BME280;4604;48.616;9.548;2022-09-09T00:22:46;96553.50;;;17.69;61.34
9139;BME280;4604;48.616;9.548;2022-09-09T00:25:17;96570.00;;;17.79;61.39
9139;BME280;4604;48.616;9.548;2022-09-09T00:27:48;96561.84;;;17.81;59.90
9139;BME280;4604;48.616;9.548;2022-09-09T00:30:18;96562.50;;;17.89;60.37
9139;BME280;4604;48.616;9.548;2022-09-09T00:32:48;96564.31;;;17.82;60.42
9139;BME280;4604;48.616;9.548;2022-09-09T00:35:18;96560.81;;;17.82;61.41
9139;BME280;4604;48.616;9.548;2022-09-09T00:37:50;96557.97;;;17.83;61.31
9139;BME280;4604;48.616;9.548;2022-09-09T00:40:23;96563.47;;;17.82;61.51
9139;BME280;4604;48.616;9.548;2022-09-09T00:42:59;96566.16;;;17.82;61.79
9139;BME280;4604;48.616;9.548;2022-09-09T00:45:51;96561.25;;;17.85;61.47
9139;BME280;4604;48.616;9.548;2022-09-09T00:48:22;96553.69;;;17.89;61.24
9139;BME280;4604;48.616;9.548;2022-09-09T00:50:55;96556.81;;;17.92;61.43
9139;BME280;4604;48.616;9.548;2022-09-09T00:53:31;96553.91;;;17.94;61.53
9139;BME280;4604;48.616;9.548;2022-09-09T00:56:09;96554.16;;;17.99;61.74
9139;BME280;4604;48.616;9.548;2022-09-09T00:58:38;96560.53;;;17.98;61.10
9139;BME280;4604;48.616;9.548;2022-09-09T01:01:09;96562.38;;;17.98;61.09
9139;BME280;4604;48.616;9.548;2022-09-09T01:03:43;96561.34;;;17.99;61.25
9139;BME280;4604;48.616;9.548;2022-09-09T01:06:22;96564.66;;;18.01;61.37
9139;BME280;4604;48.616;9.548;2022-09-09T01:09:07;96566.06;;;17.96;61.17
9139;BME280;4604;48.616;9.548;2022-09-09T01:11:43;96566.28;;;18.02;61.41
9139;BME280;4604;48.616;9.548;2022-09-09T01:14:24;96571.63;;;18.02;61.24
9139;BME280;4604;48.616;9.548;2022-09-09T01:17:00;96559.13;;;18.02;59.87
9139;BME280;4604;48.616;9.548;2022-09-09T01:19:40;96561.09;;;17.93;60.08
9139;BME280;4604;48.616;9.548;2022-09-09T01:22:15;96559.41;;;17.86;60.31
9139;BME280;4604;48.616;9.548;2022-09-09T01:25:05;96565.25;;;17.74;60.84
9139;BME280;4604;48.616;9.548;2022-09-09T01:27:41;96561.69;;;17.67;61.38
9139;BME280;4604;48.616;9.548;2022-09-09T01:30:10;96555.69;;;17.59;61.54
9139;BME280;4604;48.616;9.548;2022-09-09T01:32:41;96565.91;;;17.55;61.99
9139;BME280;4604;48.616;9.548;2022-09-09T01:35:11;96564.66;;;17.51;62.23
9139;BME280;4604;48.616;9.548;2022-09-09T01:37:38;96559.03;;;17.46;62.45
9139;BME280;4604;48.616;9.548;2022-09-09T01:40:06;96559.88;;;17.46;62.68
9139;BME280;4604;48.616;9.548;2022-09-09T01:42:33;96556.13;;;17.41;62.63
9139;BME280;4604;48.616;9.548;2022-09-09T01:45:05;96564.75;;;17.43;63.06
9139;BME280;4604;48.616;9.548;2022-09-09T01:47:32;96573.97;;;17.40;62.59
9139;BME280;4604;48.616;9.548;2022-09-09T01:50:07;96571.84;;;17.29;62.96
9139;BME280;4604;48.616;9.548;2022-09-09T01:52:35;96565.78;;;17.20;63.39
9139;BME280;4604;48.616;9.548;2022-09-09T01:55:03;96568.75;;;17.10;64.10
9139;BME280;4604;48.616;9.548;2022-09-09T01:57:33;96573.56;;;17.00;64.53
9139;BME280;4604;48.616;9.548;2022-09-09T02:00:09;96573.88;;;16.90;65.01
9139;BME280;4604;48.616;9.548;2022-09-09T02:02:40;96571.88;;;16.78;65.47
9139;BME280;4604;48.616;9.548;2022-09-09T02:05:17;96574.22;;;16.73;66.12
9139;BME280;4604;48.616;9.548;2022-09-09T02:07:50;96566.53;;;16.63;66.84
9139;BME280;4604;48.616;9.548;2022-09-09T02:10:25;96566.47;;;16.56;67.27
9139;BME280;4604;48.616;9.548;2022-09-09T02:12:59;96563.56;;;16.36;67.95
9139;BME280;4604;48.616;9.548;2022-09-09T02:15:34;96573.47;;;16.27;68.31
9139;BME280;4604;48.616;9.548;2022-09-09T02:18:04;96580.34;;;16.22;68.95
9139;BME280;4604;48.616;9.548;2022-09-09T02:20:35;96590.25;;;16.13;69.75
9139;BME280;4604;48.616;9.548;2022-09-09T02:23:04;96587.41;;;16.00;70.86
9139;BME280;4604;48.616;9.548;2022-09-09T02:25:33;96594.47;;;15.93;71.33
9139;BME280;4604;48.616;9.548;2022-09-09T02:28:01;96592.34;;;15.88;71.60
9139;BME280;4604;48.616;9.548;2022-09-09T02:30:33;96593.41;;;15.79;72.39
9139;BME280;4604;48.616;9.548;2022-09-09T02:33:03;96565.25;;;15.61;73.00
9139;BME280;4604;48.616;9.548;2022-09-09T02:35:32;96577.22;;;15.66;73.26
9139;BME280;4604;48.616;9.548;2022-09-09T02:38:04;96573.78;;;15.57;73.73
9139;BME280;4604;48.616;9.548;2022-09-09T02:40:32;96574.97;;;15.54;74.50
9139;BME280;4604;48.616;9.548;2022-09-09T02:42:59;96572.47;;;15.53;75.09
9139;BME280;4604;48.616;9.548;2022-09-09T02:45:31;96573.66;;;15.50;75.76
9139;BME280;4604;48.616;9.548;2022-09-09T02:48:09;96567.53;;;15.50;76.14
9139;BME280;4604;48.616;9.548;2022-09-09T02:50:45;96564.16;;;15.56;76.48
9139;BME280;4604;48.616;9.548;2022-09-09T02:53:17;96566.47;;;15.59;76.27
9139;BME280;4604;48.616;9.548;2022-09-09T02:55:47;96557.94;;;15.63;76.70
9139;BME280;4604;48.616;9.548;2022-09-09T02:58:16;96561.94;;;15.59;76.50
9139;BME280;4604;48.616;9.548;2022-09-09T03:00:46;96564.97;;;15.56;76.94
9139;BME280;4604;48.616;9.548;2022-09-09T03:03:15;96575.66;;;15.48;77.56
9139;BME280;4604;48.616;9.548;2022-09-09T03:05:43;96589.63;;;15.50;77.90
9139;BME280;4604;48.616;9.548;2022-09-09T03:08:10;96590.28;;;15.52;78.25
9139;BME280;4604;48.616;9.548;2022-09-09T03:10:36;96586.78;;;15.52;78.58
9139;BME280;4604;48.616;9.548;2022-09-09T03:13:03;96587.91;;;15.57;78.78
9139;BME280;4604;48.616;9.548;2022-09-09T03:15:31;96586.25;;;15.33;79.94
9139;BME280;4604;48.616;9.548;2022-09-09T03:18:05;96588.09;;;15.33;79.84
9139;BME280;4604;48.616;9.548;2022-09-09T03:20:33;96584.75;;;15.39;80.05
9139;BME280;4604;48.616;9.548;2022-09-09T03:23:02;96585.84;;;15.45;80.07
9139;BME280;4604;48.616;9.548;2022-09-09T03:25:29;96588.34;;;15.46;79.26
9139;BME280;4604;48.616;9.548;2022-09-09T03:27:55;96584.09;;;15.37;79.68
9139;BME280;4604;48.616;9.548;2022-09-09T03:30:23;96599.75;;;15.32;79.89
9139;BME280;4604;48.616;9.548;2022-09-09T03:32:50;96605.06;;;15.32;80.37
9139;BME280;4604;48.616;9.548;2022-09-09T03:35:17;96597.09;;;15.32;80.92
9139;BME280;4604;48.616;9.548;2022-09-09T03:37:45;96591.53;;;15.41;81.53
9139;BME280;4604;48.616;9.548;2022-09-09T03:40:13;96584.66;;;15.47;81.67
9139;BME280;4604;48.616;9.548;2022-09-09T03:42:40;96590.81;;;15.48;81.69
9139;BME280;4604;48.616;9.548;2022-09-09T03:45:09;96594.47;;;15.47;81.88
9139;BME280;4604;48.616;9.548;2022-09-09T03:47:36;96598.13;;;15.46;82.31
9139;BME280;4604;48.616;9.548;2022-09-09T03:50:04;96598.72;;;15.33;83.01
9139;BME280;4604;48.616;9.548;2022-09-09T03:52:34;96600.78;;;15.46;82.99
9139;BME280;4604;48.616;9.548;2022-09-09T03:55:03;96605.13;;;15.47;83.22
9139;BME280;4604;48.616;9.548;2022-09-09T03:57:30;96604.75;;;15.50;83.67
9139;BME280;4604;48.616;9.548;2022-09-09T03:59:57;96615.41;;;15.50;84.11
9139;BME280;4604;48.616;9.548;2022-09-09T04:02:26;96608.72;;;15.54;84.59
9139;BME280;4604;48.616;9.548;2022-09-09T04:04:53;96604.34;;;15.61;84.57
9139;BME280;4604;48.616;9.548;2022-09-09T04:07:19;96610.44;;;15.70;84.79
9139;BME280;4604;48.616;9.548;2022-09-09T04:09:46;96593.28;;;15.72;84.60
9139;BME280;4604;48.616;9.548;2022-09-09T04:12:14;96585.31;;;15.72;84.43
9139;BME280;4604;48.616;9.548;2022-09-09T04:14:43;96585.31;;;15.72;84.98
9139;BME280;4604;48.616;9.548;2022-09-09T04:17:09;96585.78;;;15.76;85.52
9139;BME280;4604;48.616;9.548;2022-09-09T04:19:36;96569.19;;;15.74;85.71
9139;BME280;4604;48.616;9.548;2022-09-09T04:22:03;96576.94;;;15.98;85.67
9139;BME280;4604;48.616;9.548;2022-09-09T04:24:30;96578.88;;;16.04;85.03
9139;BME280;4604;48.616;9.548;2022-09-09T04:26:56;96572.41;;;15.99;85.43
9139;BME280;4604;48.616;9.548;2022-09-09T04:29:25;96590.50;;;16.03;85.73
9139;BME280;4604;48.616;9.548;2022-09-09T04:31:51;96579.88;;;16.03;86.30
9139;BME280;4604;48.616;9.548;2022-09-09T04:34:18;96588.88;;;16.02;86.82
9139;BME280;4604;48.616;9.548;2022-09-09T04:36:45;96580.03;;;16.02;87.30
9139;BME280;4604;48.616;9.548;2022-09-09T04:39:12;96581.28;;;16.14;87.13
9139;BME280;4604;48.616;9.548;2022-09-09T04:41:39;96577.09;;;16.12;86.70
9139;BME280;4604;48.616;9.548;2022-09-09T04:44:06;96581.28;;;16.14;86.36
9139;BME280;4604;48.616;9.548;2022-09-09T04:46:34;96583.72;;;16.16;86.11
9139;BME280;4604;48.616;9.548;2022-09-09T04:49:02;96583.09;;;16.14;86.27
9139;BME280;4604;48.616;9.548;2022-09-09T04:51:29;96587.22;;;16.16;86.37
9139;BME280;4604;48.616;9.548;2022-09-09T04:53:56;96574.66;;;16.10;86.30
9139;BME280;4604;48.616;9.548;2022-09-09T04:56:23;96587.88;;;16.18;86.30
9139;BME280;4604;48.616;9.548;2022-09-09T04:58:52;96593.66;;;16.22;85.71
9139;BME280;4604;48.616;9.548;2022-09-09T05:01:20;96591.28;;;16.27;85.82
9139;BME280;4604;48.616;9.548;2022-09-09T05:03:50;96597.78;;;16.24;85.97
9139;BME280;4604;48.616;9.548;2022-09-09T05:06:19;96600.63;;;16.23;85.85
9139;BME280;4604;48.616;9.548;2022-09-09T05:08:47;96596.34;;;16.22;85.94
9139;BME280;4604;48.616;9.548;2022-09-09T05:11:19;96606.22;;;16.13;86.27
9139;BME280;4604;48.616;9.548;2022-09-09T05:13:47;96599.97;;;16.21;86.38
9139;BME280;4604;48.616;9.548;2022-09-09T05:16:16;96599.72;;;16.31;85.42
9139;BME280;4604;48.616;9.548;2022-09-09T05:18:43;96598.91;;;16.30;85.00
9139;BME280;4604;48.616;9.548;2022-09-09T05:21:14;96594.75;;;16.27;85.17
9139;BME280;4604;48.616;9.548;2022-09-09T05:23:41;96605.03;;;16.31;84.97
9139;BME280;4604;48.616;9.548;2022-09-09T05:26:12;96604.88;;;16.32;84.47
9139;BME280;4604;48.616;9.548;2022-09-09T05:28:39;96608.19;;;16.34;84.50
9139;BME280;4604;48.616;9.548;2022-09-09T05:31:07;96610.19;;;16.32;84.46
9139;BME280;4604;48.616;9.548;2022-09-09T05:33:35;96607.31;;;16.34;84.38
9139;BME280;4604;48.616;9.548;2022-09-09T05:36:04;96594.22;;;16.32;84.47
9139;BME280;4604;48.616;9.548;2022-09-09T05:38:32;96590.34;;;16.35;84.36
9139;BME280;4604;48.616;9.548;2022-09-09T05:41:06;96581.16;;;16.37;83.84
9139;BME280;4604;48.616;9.548;2022-09-09T05:43:33;96581.63;;;16.41;83.70
9139;BME280;4604;48.616;9.548;2022-09-09T05:46:04;96597.41;;;16.57;82.55
9139;BME280;4604;48.616;9.548;2022-09-09T05:48:32;96596.31;;;16.66;81.66
9139;BME280;4604;48.616;9.548;2022-09-09T05:51:06;96606.41;;;16.71;81.57
9139;BME280;4604;48.616;9.548;2022-09-09T05:53:35;96609.09;;;16.86;80.65
9139;BME280;4604;48.616;9.548;2022-09-09T05:56:04;96601.47;;;16.83;81.59
9139;BME280;4604;48.616;9.548;2022-09-09T05:58:31;96608.91;;;16.87;81.88
9139;BME280;4604;48.616;9.548;2022-09-09T06:01:03;96617.16;;;16.93;82.30
9139;BME280;4604;48.616;9.548;2022-09-09T06:03:31;96608.78;;;16.96;82.45
9139;BME280;4604;48.616;9.548;2022-09-09T06:05:59;96612.75;;;17.00;82.80
9139;BME280;4604;48.616;9.548;2022-09-09T06:08:26;96617.31;;;17.06;82.30
9139;BME280;4604;48.616;9.548;2022-09-09T06:11:01;96606.28;;;17.09;82.11
9139;BME280;4604;48.616;9.548;2022-09-09T06:13:28;96613.47;;;17.30;80.60
9139;BME280;4604;48.616;9.548;2022-09-09T06:15:55;96611.97;;;17.42;78.45
9139;BME280;4604;48.616;9.548;2022-09-09T06:18:24;96617.56;;;17.47;77.90
9139;BME280;4604;48.616;9.548;2022-09-09T06:20:55;96614.13;;;17.53;77.00
9139;BME280;4604;48.616;9.548;2022-09-09T06:23:22;96614.63;;;17.64;76.30
9139;BME280;4604;48.616;9.548;2022-09-09T06:25:48;96618.88;;;17.80;75.77
9139;BME280;4604;48.616;9.548;2022-09-09T06:28:17;96611.19;;;17.91;75.36
9139;BME280;4604;48.616;9.548;2022-09-09T06:30:44;96618.34;;;18.12;74.60
9139;BME280;4604;48.616;9.548;2022-09-09T06:33:12;96607.69;;;18.19;74.37
9139;BME280;4604;48.616;9.548;2022-09-09T06:35:39;96599.38;;;18.35;73.59
9139;BME280;4604;48.616;9.548;2022-09-09T06:38:06;96607.72;;;18.54;72.72
9139;BME280;4604;48.616;9.548;2022-09-09T06:40:33;96621.88;;;18.76;71.55
9139;BME280;4604;48.616;9.548;2022-09-09T06:43:02;96618.41;;;18.89;70.61
9139;BME280;4604;48.616;9.548;2022-09-09T06:45:30;96613.31;;;19.00;69.87
9139;BME280;4604;48.616;9.548;2022-09-09T06:47:57;96610.47;;;19.02;69.41
9139;BME280;4604;48.616;9.548;2022-09-09T06:50:24;96610.47;;;19.09;69.47
9139;BME280;4604;48.616;9.548;2022-09-09T06:52:50;96614.78;;;19.03;69.74
9139;BME280;4604;48.616;9.548;2022-09-09T06:55:18;96620.75;;;19.05;69.83
9139;BME280;4604;48.616;9.548;2022-09-09T06:57:46;96622.19;;;19.08;70.02
9139;BME280;4604;48.616;9.548;2022-09-09T07:00:14;96620.38;;;19.15;69.87
9139;BME280;4604;48.616;9.548;2022-09-09T07:02:42;96630.66;;;19.18;70.21
9139;BME280;4604;48.616;9.548;2022-09-09T07:05:09;96631.06;;;19.21;70.41
9139;BME280;4604;48.616;9.548;2022-09-09T07:07:37;96626.16;;;19.25;70.48
9139;BME280;4604;48.616;9.548;2022-09-09T07:10:04;96627.19;;;19.31;70.59
9139;BME280;4604;48.616;9.548;2022-09-09T07:12:31;96593.19;;;19.11;70.51
9139;BME280;4604;48.616;9.548;2022-09-09T07:15:00;96628.88;;;19.38;70.34
9139;BME280;4604;48.616;9.548;2022-09-09T07:17:27;96633.81;;;19.48;69.80
9139;BME280;4604;48.616;9.548;2022-09-09T07:19:55;96631.41;;;19.53;69.37
9139;BME280;4604;48.616;9.548;2022-09-09T07:22:23;96634.88;;;19.54;68.81
9139;BME280;4604;48.616;9.548;2022-09-09T07:24:50;96640.03;;;19.55;68.71
9139;BME280;4604;48.616;9.548;2022-09-09T07:27:17;96647.44;;;19.60;68.99
9139;BME280;4604;48.616;9.548;2022-09-09T07:29:44;96633.63;;;19.50;67.85
9139;BME280;4604;48.616;9.548;2022-09-09T07:32:11;96632.16;;;19.40;66.43
9139;BME280;4604;48.616;9.548;2022-09-09T07:34:38;96635.50;;;19.49;67.51
9139;BME280;4604;48.616;9.548;2022-09-09T07:37:06;96601.94;;;19.46;68.06
9139;BME280;4604;48.616;9.548;2022-09-09T07:39:33;96642.94;;;19.67;66.43
9139;BME280;4604;48.616;9.548;2022-09-09T07:42:00;96647.25;;;19.61;67.19
9139;BME280;4604;48.616;9.548;2022-09-09T07:44:27;96644.16;;;19.58;65.43
9139;BME280;4604;48.616;9.548;2022-09-09T07:46:54;96644.09;;;19.38;66.27
9139;BME280;4604;48.616;9.548;2022-09-09T07:49:21;96635.50;;;19.49;66.83
9139;BME280;4604;48.616;9.548;2022-09-09T07:51:47;96634.28;;;19.65;67.22
9139;BME280;4604;48.616;9.548;2022-09-09T07:54:17;96623.56;;;19.65;67.14
9139;BME280;4604;48.616;9.548;2022-09-09T07:56:49;96652.03;;;19.73;65.92
9139;BME280;4604;48.616;9.548;2022-09-09T07:59:16;96659.47;;;19.91;65.09
9139;BME280;4604;48.616;9.548;2022-09-09T08:01:45;96664.03;;;20.03;64.39
9139;BME280;4604;48.616;9.548;2022-09-09T08:04:14;96673.28;;;19.94;64.44
9139;BME280;4604;48.616;9.548;2022-09-09T08:06:43;96680.50;;;19.80;64.22
9139;BME280;4604;48.616;9.548;2022-09-09T08:09:12;96679.66;;;19.86;64.57
9139;BME280;4604;48.616;9.548;2022-09-09T08:11:41;96655.31;;;19.75;64.83
9139;BME280;4604;48.616;9.548;2022-09-09T08:14:09;96680.50;;;19.94;64.33
9139;BME280;4604;48.616;9.548;2022-09-09T08:16:37;96666.28;;;20.06;64.01
9139;BME280;4604;48.616;9.548;2022-09-09T08:19:07;96667.75;;;20.29;64.26
9139;BME280;4604;48.616;9.548;2022-09-09T08:21:35;96662.16;;;20.37;64.19
9139;BME280;4604;48.616;9.548;2022-09-09T08:24:04;96673.28;;;20.67;63.91
9139;BME280;4604;48.616;9.548;2022-09-09T08:26:33;96680.25;;;20.95;62.57
9139;BME280;4604;48.616;9.548;2022-09-09T08:29:05;96672.22;;;20.82;60.29
9139;BME280;4604;48.616;9.548;2022-09-09T08:31:33;96674.72;;;20.70;60.96
9139;BME280;4604;48.616;9.548;2022-09-09T08:34:03;96667.28;;;20.52;61.57
9139;BME280;4604;48.616;9.548;2022-09-09T08:36:32;96671.22;;;20.49;62.21
9139;BME280;4604;48.616;9.548;2022-09-09T08:39:05;96670.78;;;20.52;62.82
9139;BME280;4604;48.616;9.548;2022-09-09T08:41:42;96668.53;;;20.63;62.51
9139;BME280;4604;48.616;9.548;2022-09-09T08:44:23;96671.44;;;20.68;61.61
9139;BME280;4604;48.616;9.548;2022-09-09T08:46:59;96672.44;;;20.73;61.95
9139;BME280;4604;48.616;9.548;2022-09-09T08:52:28;96672.69;;;20.59;62.08
9139;BME280;4604;48.616;9.548;2022-09-09T08:54:59;96678.69;;;20.61;62.39
9139;BME280;4604;48.616;9.548;2022-09-09T08:57:30;96674.72;;;20.77;62.67
9139;BME280;4604;48.616;9.548;2022-09-09T09:00:09;96679.25;;;20.83;62.48
9139;BME280;4604;48.616;9.548;2022-09-09T09:02:42;96681.69;;;20.98;61.82
9139;BME280;4604;48.616;9.548;2022-09-09T09:05:19;96679.41;;;20.94;62.08
9139;BME280;4604;48.616;9.548;2022-09-09T09:08:03;96687.72;;;20.66;63.40
9139;BME280;4604;48.616;9.548;2022-09-09T09:10:42;96673.91;;;20.63;63.54
9139;BME280;4604;48.616;9.548;2022-09-09T09:13:17;96672.63;;;20.85;63.34
9139;BME280;4604;48.616;9.548;2022-09-09T09:15:50;96678.19;;;20.97;61.65
9139;BME280;4604;48.616;9.548;2022-09-09T09:18:19;96676.81;;;21.26;60.30
9139;BME280;4604;48.616;9.548;2022-09-09T09:20:51;96674.03;;;21.53;59.85
9139;BME280;4604;48.616;9.548;2022-09-09T09:23:23;96656.63;;;21.62;58.70
9139;BME280;4604;48.616;9.548;2022-09-09T09:25:53;96665.00;;;21.41;59.14
9139;BME280;4604;48.616;9.548;2022-09-09T09:28:25;96660.75;;;21.65;59.57
9139;BME280;4604;48.616;9.548;2022-09-09T09:30:56;96653.66;;;21.38;58.95
9139;BME280;4604;48.616;9.548;2022-09-09T09:33:30;96654.34;;;21.66;58.75
9139;BME280;4604;48.616;9.548;2022-09-09T09:36:03;96664.47;;;21.70;57.94
9139;BME280;4604;48.616;9.548;2022-09-09T09:38:31;96658.47;;;21.68;58.22
9139;BME280;4604;48.616;9.548;2022-09-09T09:40:59;96660.28;;;21.74;57.54
9139;BME280;4604;48.616;9.548;2022-09-09T09:43:28;96665.13;;;21.91;57.30
9139;BME280;4604;48.616;9.548;2022-09-09T09:45:57;96667.78;;;22.29;57.39
9139;BME280;4604;48.616;9.548;2022-09-09T09:48:25;96657.19;;;22.34;55.76
9139;BME280;4604;48.616;9.548;2022-09-09T09:50:54;96656.09;;;22.60;55.24
9139;BME280;4604;48.616;9.548;2022-09-09T09:53:25;96646.28;;;22.73;55.08
9139;BME280;4604;48.616;9.548;2022-09-09T09:55:55;96657.34;;;23.01;54.39
9139;BME280;4604;48.616;9.548;2022-09-09T09:58:23;96662.97;;;23.00;52.33
9139;BME280;4604;48.616;9.548;2022-09-09T10:00:52;96662.22;;;22.49;51.66
9139;BME280;4604;48.616;9.548;2022-09-09T10:03:24;96666.66;;;21.80;54.72
9139;BME280;4604;48.616;9.548;2022-09-09T10:05:51;96657.91;;;22.16;55.35
9139;BME280;4604;48.616;9.548;2022-09-09T10:08:19;96656.19;;;22.54;54.84
9139;BME280;4604;48.616;9.548;2022-09-09T10:10:53;96655.66;;;22.63;54.45
9139;BME280;4604;48.616;9.548;2022-09-09T10:13:27;96637.44;;;22.65;51.02
9139;BME280;4604;48.616;9.548;2022-09-09T10:16:06;96640.16;;;22.40;49.80
9139;BME280;4604;48.616;9.548;2022-09-09T10:18:49;96637.59;;;22.71;49.57
9139;BME280;4604;48.616;9.548;2022-09-09T10:21:42;96647.94;;;22.23;50.84
9139;BME280;4604;48.616;9.548;2022-09-09T10:24:27;96639.09;;;21.59;50.07
9139;BME280;4604;48.616;9.548;2022-09-09T10:27:05;96638.06;;;21.61;51.44
9139;BME280;4604;48.616;9.548;2022-09-09T10:29:51;96639.53;;;22.13;51.69
9139;BME280;4604;48.616;9.548;2022-09-09T10:32:37;96641.91;;;22.28;49.59
9139;BME280;4604;48.616;9.548;2022-09-09T10:35:10;96629.69;;;22.07;49.07
9139;BME280;4604;48.616;9.548;2022-09-09T10:38:10;96632.53;;;22.37;50.02
9139;BME280;4604;48.616;9.548;2022-09-09T10:40:43;96628.78;;;22.63;48.06
9139;BME280;4604;48.616;9.548;2022-09-09T10:43:30;96633.03;;;22.71;46.02
9139;BME280;4604;48.616;9.548;2022-09-09T10:46:09;96639.38;;;22.33;45.80
9139;BME280;4604;48.616;9.548;2022-09-09T10:48:54;96630.69;;;21.81;47.34
9139;BME280;4604;48.616;9.548;2022-09-09T10:51:30;96633.03;;;21.71;48.24
9139;BME280;4604;48.616;9.548;2022-09-09T10:54:13;96627.19;;;21.49;47.15
9139;BME280;4604;48.616;9.548;2022-09-09T10:56:49;96640.63;;;21.49;47.21
9139;BME280;4604;48.616;9.548;2022-09-09T10:59:20;96630.03;;;21.86;47.99
9139;BME280;4604;48.616;9.548;2022-09-09T11:01:54;96641.13;;;21.96;48.24
9139;BME280;4604;48.616;9.548;2022-09-09T11:04:26;96639.66;;;22.00;47.12
9139;BME280;4604;48.616;9.548;2022-09-09T11:06:55;96627.00;;;22.07;45.81
9139;BME280;4604;48.616;9.548;2022-09-09T11:09:25;96630.97;;;21.98;45.91
9139;BME280;4604;48.616;9.548;2022-09-09T11:11:54;96629.44;;;21.84;43.94
9139;BME280;4604;48.616;9.548;2022-09-09T11:14:28;96621.97;;;21.61;44.75
9139;BME280;4604;48.616;9.548;2022-09-09T11:17:00;96625.81;;;21.96;45.76
9139;BME280;4604;48.616;9.548;2022-09-09T11:19:30;96621.31;;;21.90;43.44
9139;BME280;4604;48.616;9.548;2022-09-09T11:22:04;96608.75;;;21.84;43.99
9139;BME280;4604;48.616;9.548;2022-09-09T11:24:37;96607.59;;;21.98;43.76
9139;BME280;4604;48.616;9.548;2022-09-09T11:27:09;96602.13;;;22.37;44.71
9139;BME280;4604;48.616;9.548;2022-09-09T11:33:08;96596.44;;;23.07;41.76
9139;BME280;4604;48.616;9.548;2022-09-09T11:35:52;96593.28;;;23.10;40.84
9139;BME280;4604;48.616;9.548;2022-09-09T11:38:27;96604.78;;;22.99;40.62
9139;BME280;4604;48.616;9.548;2022-09-09T11:40:56;96608.34;;;23.29;41.47
9139;BME280;4604;48.616;9.548;2022-09-09T11:43:29;96592.56;;;22.96;40.45
9139;BME280;4604;48.616;9.548;2022-09-09T11:45:58;96606.44;;;23.00;39.03
9139;BME280;4604;48.616;9.548;2022-09-09T11:48:31;96607.31;;;22.57;39.28
9139;BME280;4604;48.616;9.548;2022-09-09T11:51:06;96604.97;;;22.60;40.90
9139;BME280;4604;48.616;9.548;2022-09-09T11:53:35;96614.13;;;22.78;40.91
9139;BME280;4604;48.616;9.548;2022-09-09T11:56:24;96612.34;;;22.90;40.64
9139;BME280;4604;48.616;9.548;2022-09-09T11:58:57;96618.38;;;22.49;41.94
9139;BME280;4604;48.616;9.548;2022-09-09T12:01:33;96639.53;;;21.88;47.44
9139;BME280;4604;48.616;9.548;2022-09-09T12:04:14;96661.81;;;21.64;48.70
9139;BME280;4604;48.616;9.548;2022-09-09T12:06:45;96661.94;;;20.72;51.50
9139;BME280;4604;48.616;9.548;2022-09-09T12:09:20;96699.69;;;19.97;54.95
9139;BME280;4604;48.616;9.548;2022-09-09T12:11:49;96679.88;;;19.78;55.28
9139;BME280;4604;48.616;9.548;2022-09-09T12:14:21;96683.56;;;19.77;55.99
9139;BME280;4604;48.616;9.548;2022-09-09T12:16:48;96676.28;;;19.64;57.60
9139;BME280;4604;48.616;9.548;2022-09-09T12:19:22;96662.06;;;19.57;57.79
9139;BME280;4604;48.616;9.548;2022-09-09T12:21:55;96641.75;;;19.83;57.35
9139;BME280;4604;48.616;9.548;2022-09-09T12:24:35;96656.81;;;20.17;56.91
9139;BME280;4604;48.616;9.548;2022-09-09T12:27:08;96653.91;;;20.45;55.09
9139;BME280;4604;48.616;9.548;2022-09-09T12:29:45;96649.19;;;20.61;53.02
9139;BME280;4604;48.616;9.548;2022-09-09T12:32:20;96643.56;;;20.76;51.56
9139;BME280;4604;48.616;9.548;2022-09-09T12:34:51;96636.59;;;20.68;52.33
9139;BME280;4604;48.616;9.548;2022-09-09T12:37:25;96643.16;;;20.72;52.65
9139;BME280;4604;48.616;9.548;2022-09-09T12:39:56;96615.44;;;20.91;52.64
9139;BME280;4604;48.616;9.548;2022-09-09T12:42:24;96632.97;;;21.01;50.50
9139;BME280;4604;48.616;9.548;2022-09-09T12:44:52;96626.31;;;21.10;49.66
9139;BME280;4604;48.616;9.548;2022-09-09T12:47:20;96622.22;;;21.01;49.34
9139;BME280;4604;48.616;9.548;2022-09-09T12:49:49;96620.91;;;21.16;48.49
9139;BME280;4604;48.616;9.548;2022-09-09T12:52:20;96610.84;;;21.05;49.14
9139;BME280;4604;48.616;9.548;2022-09-09T12:54:49;96620.91;;;21.16;49.07
9139;BME280;4604;48.616;9.548;2022-09-09T12:57:22;96612.19;;;21.28;49.92
9139;BME280;4604;48.616;9.548;2022-09-09T12:59:51;96613.31;;;21.52;48.17
9139;BME280;4604;48.616;9.548;2022-09-09T13:02:21;96609.06;;;21.31;45.51
9139;BME280;4604;48.616;9.548;2022-09-09T13:04:49;96614.41;;;21.37;45.31
9139;BME280;4604;48.616;9.548;2022-09-09T13:07:17;96604.47;;;21.45;45.06
9139;BME280;4604;48.616;9.548;2022-09-09T13:09:46;96614.97;;;21.53;45.79
9139;BME280;4604;48.616;9.548;2022-09-09T13:12:16;96605.84;;;21.61;46.12
9139;BME280;4604;48.616;9.548;2022-09-09T13:14:48;96602.75;;;21.57;46.22
9139;BME280;4604;48.616;9.548;2022-09-09T13:17:19;96611.16;;;21.67;45.22
9139;BME280;4604;48.616;9.548;2022-09-09T13:19:47;96592.59;;;21.66;44.94
9139;BME280;4604;48.616;9.548;2022-09-09T13:22:20;96604.81;;;21.55;44.95
9139;BME280;4604;48.616;9.548;2022-09-09T13:24:58;96593.09;;;21.49;45.75
9139;BME280;4604;48.616;9.548;2022-09-09T13:27:31;96578.09;;;21.67;46.42
9139;BME280;4604;48.616;9.548;2022-09-09T13:30:22;96598.94;;;21.96;47.25
9139;BME280;4604;48.616;9.548;2022-09-09T13:33:04;96595.47;;;21.89;46.92
9139;BME280;4604;48.616;9.548;2022-09-09T13:35:31;96580.69;;;21.48;48.06
9139;BME280;4604;48.616;9.548;2022-09-09T13:38:17;96591.44;;;21.48;48.36
9139;BME280;4604;48.616;9.548;2022-09-09T13:40:53;96586.56;;;21.70;47.67
9139;BME280;4604;48.616;9.548;2022-09-09T13:43:22;96580.69;;;21.80;46.46
9139;BME280;4604;48.616;9.548;2022-09-09T13:45:57;96582.81;;;21.71;46.46
9139;BME280;4604;48.616;9.548;2022-09-09T13:48:25;96576.06;;;21.87;46.11
9139;BME280;4604;48.616;9.548;2022-09-09T13:51:00;96593.66;;;21.90;46.16